Time;durP1;ratioP1;P1;durP2;ratioP2;P2;SDS_P1;SDS_P2;PMS_P1;PMS_P2;Temp;Humidity;BMP_temperature;BMP_pressure;BME280_temperature;BME280_humidity;BME280_pressure;Samples;Min_cycle;Max_cycle;Signal;HPM_P1;HPM_P2
2023/04/11 00:02:14;;;;;;;18.90;4.70;;;11.60;99.90;;;;;;5124571;27;20072;-68
2023/04/11 00:04:40;;;;;;;22.52;3.90;;;11.60;99.90;;;;;;5129210;27;20019;-69
2023/04/11 00:07:09;;;;;;;20.98;4.47;;;11.60;99.90;;;;;;5119754;27;21516;-68
2023/04/11 00:09:35;;;;;;;28.65;5.18;;;11.50;99.90;;;;;;5122582;27;20107;-69
2023/04/11 00:12:01;;;;;;;25.40;5.38;;;11.40;99.90;;;;;;5124493;27;20092;-68
2023/04/11 00:14:27;;;;;;;25.48;4.68;;;11.50;99.90;;;;;;5121409;27;20022;-68
2023/04/11 00:16:53;;;;;;;27.58;5.30;;;11.40;99.90;;;;;;5126063;28;20023;-68
2023/04/11 00:19:24;;;;;;;29.38;4.72;;;11.50;99.90;;;;;;5117675;28;20024;-68
2023/04/11 00:21:50;;;;;;;27.02;5.68;;;11.60;99.90;;;;;;5123545;28;20534;-69
2023/04/11 00:24:16;;;;;;;18.05;4.85;;;11.50;99.90;;;;;;5120324;27;20463;-68
2023/04/11 00:26:42;;;;;;;25.27;4.78;;;11.50;99.90;;;;;;5129762;27;20031;-68
2023/04/11 00:29:08;;;;;;;20.15;5.38;;;11.50;99.90;;;;;;5119346;27;20039;-68
2023/04/11 00:31:34;;;;;;;29.15;5.10;;;11.60;99.90;;;;;;5121094;28;20023;-68
2023/04/11 00:33:59;;;;;;;23.25;4.55;;;11.50;99.90;;;;;;5122824;27;20027;-68
2023/04/11 00:36:25;;;;;;;25.95;4.55;;;11.40;99.90;;;;;;5123425;27;20471;-68
2023/04/11 00:38:54;;;;;;;25.95;5.13;;;11.40;99.90;;;;;;5128487;27;20142;-69
2023/04/11 00:41:20;;;;;;;29.35;5.43;;;11.40;99.90;;;;;;5124762;27;20044;-69
2023/04/11 00:43:46;;;;;;;22.65;4.93;;;11.50;99.90;;;;;;5130443;27;20487;-69
2023/04/11 00:46:13;;;;;;;34.30;5.18;;;11.40;99.90;;;;;;5125504;27;20024;-69
2023/04/11 00:48:40;;;;;;;30.77;5.55;;;11.40;99.90;;;;;;5131171;27;20031;-68
2023/04/11 00:51:08;;;;;;;36.33;5.63;;;11.30;99.90;;;;;;5122859;27;20034;-69
2023/04/11 00:53:36;;;;;;;37.28;5.95;;;11.40;99.90;;;;;;5130914;27;20023;-68
2023/04/11 00:56:02;;;;;;;27.70;5.45;;;11.40;99.90;;;;;;5123967;27;20387;-68
2023/04/11 00:58:28;;;;;;;31.42;5.85;;;11.40;99.90;;;;;;5128110;27;20030;-68
2023/04/11 01:00:54;;;;;;;34.38;4.68;;;11.50;99.90;;;;;;5128053;27;20032;-68
2023/04/11 01:03:22;;;;;;;31.38;5.93;;;11.40;99.90;;;;;;5127982;27;20691;-68
2023/04/11 01:05:53;;;;;;;24.75;4.85;;;11.40;99.90;;;;;;5128251;27;20024;-69
2023/04/11 01:08:21;;;;;;;32.22;5.38;;;11.40;99.90;;;;;;5125033;27;20024;-67
2023/04/11 01:10:49;;;;;;;35.33;6.43;;;11.30;99.90;;;;;;5127728;27;20027;-68
2023/04/11 01:13:16;;;;;;;28.55;5.10;;;11.40;99.90;;;;;;5124396;27;20031;-68
2023/04/11 01:15:41;;;;;;;30.92;5.57;;;11.40;99.90;;;;;;5123054;27;20042;-68
2023/04/11 01:18:08;;;;;;;31.92;5.88;;;11.30;99.90;;;;;;5132066;27;20753;-68
2023/04/11 01:20:34;;;;;;;30.10;6.50;;;11.30;99.90;;;;;;5125563;27;20015;-68
2023/04/11 01:23:03;;;;;;;32.80;5.97;;;11.30;99.90;;;;;;5124051;27;20051;-68
2023/04/11 01:25:29;;;;;;;33.67;5.38;;;11.30;99.90;;;;;;5129154;27;20022;-68
2023/04/11 01:27:55;;;;;;;23.27;5.10;;;11.30;99.90;;;;;;5124980;27;20031;-68
2023/04/11 01:30:21;;;;;;;33.85;6.40;;;11.30;99.90;;;;;;5127966;27;20025;-69
2023/04/11 01:32:49;;;;;;;31.17;5.15;;;11.20;99.90;;;;;;5129333;27;20050;-68
2023/04/11 01:35:16;;;;;;;37.80;6.00;;;11.20;99.90;;;;;;5120565;27;20047;-68
2023/04/11 01:37:42;;;;;;;29.27;5.05;;;11.20;99.90;;;;;;5126626;27;20023;-68
2023/04/11 01:40:08;;;;;;;34.67;5.72;;;11.30;99.90;;;;;;5121062;27;20023;-68
2023/04/11 01:42:36;;;;;;;32.70;5.72;;;11.30;99.90;;;;;;5127970;27;20039;-68
2023/04/11 01:45:04;;;;;;;29.73;5.35;;;11.20;99.90;;;;;;5128619;27;20027;-68
2023/04/11 01:47:29;;;;;;;30.77;5.38;;;11.20;99.90;;;;;;5125056;27;20414;-68
2023/04/11 01:49:55;;;;;;;34.47;5.60;;;11.20;99.90;;;;;;5126070;27;20491;-68
2023/04/11 01:52:20;;;;;;;30.17;5.22;;;11.30;99.90;;;;;;5128568;27;20048;-68
2023/04/11 01:54:46;;;;;;;29.25;5.00;;;11.30;99.90;;;;;;5121986;27;20026;-68
2023/04/11 01:57:12;;;;;;;24.05;4.60;;;11.30;99.90;;;;;;5128028;27;20170;-68
2023/04/11 01:59:37;;;;;;;32.90;5.78;;;11.40;99.90;;;;;;5127667;27;20020;-68
2023/04/11 02:02:03;;;;;;;35.83;6.35;;;11.30;99.90;;;;;;5125665;27;20038;-68
2023/04/11 02:04:29;;;;;;;37.90;6.32;;;11.20;99.90;;;;;;5119302;27;20069;-68
2023/04/11 02:06:54;;;;;;;35.97;6.07;;;11.10;99.90;;;;;;5125239;27;20023;-68
2023/04/11 02:09:20;;;;;;;35.25;6.55;;;11.10;99.90;;;;;;5123081;27;20106;-68
2023/04/11 02:11:45;;;;;;;29.05;6.05;;;11.00;99.90;;;;;;5116283;27;20027;-68
2023/04/11 02:14:13;;;;;;;31.48;6.57;;;11.10;99.90;;;;;;5124746;27;20545;-68
2023/04/11 02:16:55;;;;;;;33.50;5.20;;;11.10;99.90;;;;;;5123843;27;20031;-68
2023/04/11 02:19:24;;;;;;;39.35;7.18;;;11.10;99.90;;;;;;5122117;27;20059;-68
2023/04/11 02:21:50;;;;;;;28.58;6.03;;;10.90;99.90;;;;;;5123502;27;20047;-68
2023/04/11 02:24:16;;;;;;;32.67;5.15;;;10.80;99.90;;;;;;5131337;27;20048;-68
2023/04/11 02:26:41;;;;;;;29.88;4.82;;;10.90;99.90;;;;;;5122797;27;20110;-68
2023/04/11 02:29:07;;;;;;;33.55;4.50;;;10.90;99.90;;;;;;5120527;27;20023;-68
2023/04/11 02:31:33;;;;;;;26.58;5.38;;;10.90;99.90;;;;;;5123022;27;20066;-68
2023/04/11 02:33:59;;;;;;;33.88;5.68;;;10.90;99.90;;;;;;5123602;27;20027;-68
2023/04/11 02:36:27;;;;;;;27.98;4.93;;;10.90;99.90;;;;;;5124028;27;20061;-68
2023/04/11 02:38:53;;;;;;;31.70;5.15;;;10.80;99.90;;;;;;5123876;27;20038;-68
2023/04/11 02:41:19;;;;;;;35.65;4.97;;;10.90;99.90;;;;;;5125873;27;20023;-68
2023/04/11 02:43:44;;;;;;;30.70;5.65;;;10.90;99.90;;;;;;5123476;27;20691;-68
2023/04/11 02:46:10;;;;;;;28.05;4.63;;;10.90;99.90;;;;;;5120157;27;20024;-68
2023/04/11 02:48:36;;;;;;;28.80;5.00;;;10.80;99.90;;;;;;5120573;27;20027;-68
2023/04/11 02:51:01;;;;;;;24.52;4.85;;;10.80;99.90;;;;;;5125377;27;20051;-69
2023/04/11 02:53:27;;;;;;;33.95;5.30;;;10.80;99.90;;;;;;5122648;27;20024;-68
2023/04/11 02:55:53;;;;;;;27.58;5.05;;;10.80;99.90;;;;;;5121307;27;20076;-68
2023/04/11 02:58:24;;;;;;;29.55;4.25;;;10.90;99.90;;;;;;5122744;27;20031;-68
2023/04/11 03:00:50;;;;;;;26.67;4.55;;;10.90;99.90;;;;;;5120586;27;20020;-68
2023/04/11 03:03:16;;;;;;;22.92;4.00;;;10.90;99.90;;;;;;5125850;27;20509;-69
2023/04/11 03:05:41;;;;;;;32.25;5.57;;;11.00;99.90;;;;;;5125217;27;20023;-69
2023/04/11 03:08:10;;;;;;;26.27;4.68;;;10.90;99.90;;;;;;5129004;27;20031;-68
2023/04/11 03:10:35;;;;;;;31.25;5.25;;;10.90;99.90;;;;;;5127197;27;20016;-69
2023/04/11 03:13:01;;;;;;;20.40;4.18;;;10.90;99.90;;;;;;5122948;27;20046;-68
2023/04/11 03:15:27;;;;;;;26.48;5.68;;;10.90;99.90;;;;;;5123611;27;20029;-68
2023/04/11 03:17:52;;;;;;;23.35;4.63;;;10.90;99.90;;;;;;5127660;27;20096;-68
2023/04/11 03:20:19;;;;;;;25.48;4.40;;;10.90;99.90;;;;;;5118791;27;20030;-68
2023/04/11 03:22:48;;;;;;;27.17;4.72;;;10.90;99.90;;;;;;5122267;27;20110;-68
2023/04/11 03:25:14;;;;;;;25.10;5.22;;;10.90;99.90;;;;;;5121565;27;20019;-68
2023/04/11 03:27:40;;;;;;;31.80;5.25;;;10.90;99.90;;;;;;5131052;27;20019;-69
2023/04/11 03:30:07;;;;;;;24.80;5.13;;;10.80;99.90;;;;;;5116877;27;20069;-68
2023/04/11 03:32:32;;;;;;;24.65;4.22;;;10.80;99.90;;;;;;5123420;27;20429;-69
2023/04/11 03:35:00;;;;;;;23.23;4.40;;;10.80;99.90;;;;;;5121166;27;20083;-68
2023/04/11 03:37:26;;;;;;;25.10;4.35;;;10.80;99.90;;;;;;5122812;27;20152;-68
2023/04/11 03:39:51;;;;;;;23.80;4.68;;;10.70;99.90;;;;;;5117457;27;20110;-68
2023/04/11 03:42:17;;;;;;;21.63;5.07;;;10.80;99.90;;;;;;5121756;27;20066;-68
2023/04/11 03:44:43;;;;;;;27.02;5.43;;;10.80;99.90;;;;;;5124607;27;20027;-68
2023/04/11 03:47:08;;;;;;;23.08;5.20;;;10.70;99.90;;;;;;5123307;27;20031;-68
2023/04/11 03:49:34;;;;;;;25.48;5.57;;;10.70;99.90;;;;;;5124287;27;20375;-68
2023/04/11 03:52:00;;;;;;;34.10;4.90;;;10.80;99.90;;;;;;5119394;27;20028;-69
2023/04/11 03:54:25;;;;;;;28.45;5.20;;;10.70;99.90;;;;;;5126967;27;20572;-69
2023/04/11 03:56:51;;;;;;;26.17;5.13;;;10.80;99.90;;;;;;5120058;27;20577;-69
2023/04/11 03:59:17;;;;;;;25.85;5.32;;;10.60;99.90;;;;;;5133121;27;20034;-68
2023/04/11 04:01:42;;;;;;;24.13;4.53;;;10.60;99.90;;;;;;5125451;27;20482;-68
2023/04/11 04:04:08;;;;;;;32.95;5.20;;;10.60;99.90;;;;;;5121979;27;20031;-68
2023/04/11 04:06:34;;;;;;;24.63;4.68;;;10.60;99.90;;;;;;5122002;27;20076;-68
2023/04/11 04:09:00;;;;;;;17.80;4.13;;;10.50;99.90;;;;;;5119331;27;20085;-68
2023/04/11 04:11:25;;;;;;;28.40;4.70;;;10.50;99.90;;;;;;5124260;27;20394;-68
2023/04/11 04:13:51;;;;;;;29.10;4.65;;;10.50;99.90;;;;;;5119967;27;20460;-69
2023/04/11 04:16:16;;;;;;;22.20;4.40;;;10.40;99.90;;;;;;5122768;27;20051;-68
2023/04/11 04:18:42;;;;;;;27.20;4.88;;;10.50;99.90;;;;;;5121282;27;20030;-68
2023/04/11 04:21:08;;;;;;;31.02;4.35;;;10.40;99.90;;;;;;5121288;28;20033;-68
2023/04/11 04:23:34;;;;;;;22.00;4.60;;;10.40;99.90;;;;;;5122917;27;20127;-68
2023/04/11 04:26:01;;;;;;;23.30;4.35;;;10.40;99.90;;;;;;5117387;28;20373;-68
2023/04/11 04:28:27;;;;;;;25.50;4.82;;;10.30;99.90;;;;;;5119427;27;20507;-68
2023/04/11 04:30:56;;;;;;;26.35;4.47;;;10.30;99.90;;;;;;5120767;28;20027;-68
2023/04/11 04:33:23;;;;;;;28.63;4.97;;;10.40;99.90;;;;;;5116882;28;20430;-68
2023/04/11 04:35:58;;;;;;;22.98;4.70;;;10.30;99.90;;;;;;5126197;28;20035;-68
2023/04/11 04:38:24;;;;;;;26.58;4.32;;;10.30;99.90;;;;;;5128627;27;20483;-68
2023/04/11 04:40:53;;;;;;;30.33;4.93;;;10.30;99.90;;;;;;5118684;27;20015;-68
2023/04/11 04:43:22;;;;;;;28.63;4.30;;;10.30;99.90;;;;;;5120443;28;20035;-69
2023/04/11 04:45:48;;;;;;;26.95;5.72;;;10.20;99.90;;;;;;5129014;28;20015;-68
2023/04/11 04:48:16;;;;;;;28.40;5.50;;;10.20;99.90;;;;;;5120706;27;20150;-69
2023/04/11 04:50:42;;;;;;;24.38;4.75;;;10.10;99.90;;;;;;5129026;28;20032;-68
2023/04/11 04:53:08;;;;;;;26.55;4.95;;;10.10;99.90;;;;;;5118662;27;20026;-68
2023/04/11 04:55:34;;;;;;;30.92;5.00;;;10.10;99.90;;;;;;5125886;27;20027;-68
2023/04/11 04:58:00;;;;;;;28.00;4.53;;;10.10;99.90;;;;;;5118964;27;20342;-69
2023/04/11 05:00:26;;;;;;;28.70;4.80;;;10.10;99.90;;;;;;5125983;27;20463;-69
2023/04/11 05:02:54;;;;;;;24.58;4.78;;;10.00;99.90;;;;;;5118451;27;20454;-69
2023/04/11 05:05:20;;;;;;;27.10;5.18;;;10.10;99.90;;;;;;5120378;28;20008;-69
2023/04/11 05:07:45;;;;;;;30.70;5.40;;;10.00;99.90;;;;;;5123290;27;20038;-69
2023/04/11 05:10:11;;;;;;;25.25;4.80;;;10.00;99.90;;;;;;5121158;27;20031;-68
2023/04/11 05:12:37;;;;;;;33.65;4.70;;;10.10;99.90;;;;;;5120458;28;20035;-68
2023/04/11 05:15:03;;;;;;;24.27;5.45;;;10.00;99.90;;;;;;5119500;27;20078;-69
2023/04/11 05:17:29;;;;;;;28.35;5.28;;;10.00;99.90;;;;;;5123149;27;20098;-68
2023/04/11 05:19:55;;;;;;;22.27;4.63;;;10.00;99.90;;;;;;5124080;27;20028;-68
2023/04/11 05:22:21;;;;;;;26.10;4.95;;;10.00;99.90;;;;;;5125414;27;20068;-68
2023/04/11 05:24:47;;;;;;;23.08;5.20;;;10.00;99.90;;;;;;5118131;27;20058;-68
2023/04/11 05:27:12;;;;;;;37.35;4.65;;;9.90;99.90;;;;;;5126304;27;20030;-68
2023/04/11 05:29:38;;;;;;;30.95;5.15;;;9.90;99.90;;;;;;5118443;27;20039;-68
2023/04/11 05:32:04;;;;;;;27.65;4.18;;;9.90;99.90;;;;;;5122221;27;20027;-69
2023/04/11 05:34:31;;;;;;;25.23;4.10;;;9.90;99.90;;;;;;5126495;27;20087;-69
2023/04/11 05:36:57;;;;;;;28.10;5.00;;;9.80;99.90;;;;;;5128095;27;20023;-68
2023/04/11 05:39:22;;;;;;;36.45;5.57;;;9.90;99.90;;;;;;5132331;27;20043;-68
2023/04/11 05:41:49;;;;;;;25.02;4.50;;;10.00;99.90;;;;;;5129702;27;20394;-69
2023/04/11 05:44:14;;;;;;;25.30;4.80;;;9.90;99.90;;;;;;5127067;27;20059;-68
2023/04/11 05:46:40;;;;;;;22.27;4.68;;;9.80;99.90;;;;;;5123843;27;20046;-69
2023/04/11 05:49:06;;;;;;;21.90;4.97;;;9.90;99.90;;;;;;5126575;27;20037;-68
2023/04/11 05:51:32;;;;;;;19.52;4.07;;;9.90;99.90;;;;;;5118794;27;20042;-69
2023/04/11 05:53:57;;;;;;;18.90;4.38;;;9.90;99.90;;;;;;5122539;27;20488;-69
2023/04/11 05:56:23;;;;;;;21.92;4.30;;;10.00;99.90;;;;;;5125050;27;20027;-68
2023/04/11 05:58:49;;;;;;;18.05;4.35;;;9.90;99.90;;;;;;5125875;27;20023;-68
2023/04/11 06:01:17;;;;;;;24.42;4.15;;;10.00;99.90;;;;;;5122930;27;20031;-68
2023/04/11 06:03:46;;;;;;;29.67;5.00;;;9.90;99.90;;;;;;5127308;27;20030;-68
2023/04/11 06:06:13;;;;;;;17.92;3.90;;;10.00;99.90;;;;;;5121620;27;20015;-69
2023/04/11 06:08:38;;;;;;;21.60;4.35;;;10.00;99.90;;;;;;5122648;27;20028;-68
2023/04/11 06:11:04;;;;;;;26.02;4.40;;;9.90;99.90;;;;;;5123888;27;20032;-68
2023/04/11 06:13:30;;;;;;;27.33;4.65;;;9.90;99.90;;;;;;5122355;27;20441;-69
2023/04/11 06:15:56;;;;;;;16.42;4.72;;;9.90;99.90;;;;;;5128417;27;20031;-69
2023/04/11 06:18:21;;;;;;;23.40;4.68;;;10.00;99.90;;;;;;5124837;27;20027;-68
2023/04/11 06:20:48;;;;;;;24.27;4.25;;;10.00;99.90;;;;;;5127000;27;20031;-67
2023/04/11 06:23:14;;;;;;;22.02;4.35;;;10.10;99.90;;;;;;5123435;27;20028;-68
2023/04/11 06:25:39;;;;;;;18.63;3.90;;;10.10;99.90;;;;;;5124172;27;20026;-68
2023/04/11 06:28:05;;;;;;;20.15;3.90;;;10.00;99.90;;;;;;5128833;27;20044;-69
2023/04/11 06:30:31;;;;;;;20.80;3.60;;;10.10;99.90;;;;;;5127754;27;20023;-69
2023/04/11 06:32:57;;;;;;;17.35;3.28;;;10.00;99.90;;;;;;5122179;27;20537;-69
2023/04/11 06:35:25;;;;;;;17.52;3.50;;;10.00;99.90;;;;;;5096415;27;20019;-69
2023/04/11 06:37:51;;;;;;;18.20;4.35;;;10.10;99.90;;;;;;5119679;27;20022;-69
2023/04/11 06:40:19;;;;;;;18.33;4.15;;;10.20;99.90;;;;;;5119182;27;20023;-68
2023/04/11 06:42:46;;;;;;;22.00;3.70;;;10.20;99.90;;;;;;5119750;27;20444;-68
2023/04/11 06:45:11;;;;;;;22.27;3.65;;;10.30;99.90;;;;;;5114461;27;20532;-67
2023/04/11 06:47:37;;;;;;;18.20;4.07;;;10.40;99.90;;;;;;5116508;27;20106;-68
2023/04/11 06:50:04;;;;;;;19.50;2.97;;;10.50;99.90;;;;;;5116032;27;20046;-68
2023/04/11 06:52:29;;;;;;;14.23;4.05;;;10.40;99.90;;;;;;5115569;27;20027;-68
2023/04/11 06:54:55;;;;;;;20.77;3.97;;;10.40;99.90;;;;;;5114785;27;20023;-67
2023/04/11 06:57:21;;;;;;;16.33;2.70;;;10.40;99.90;;;;;;5115742;27;20027;-69
2023/04/11 06:59:46;;;;;;;22.45;3.75;;;10.50;99.90;;;;;;5119523;27;20491;-68
2023/04/11 07:02:12;;;;;;;19.35;3.30;;;10.50;99.90;;;;;;5115096;27;20106;-67
2023/04/11 07:04:38;;;;;;;17.75;3.78;;;10.60;99.90;;;;;;5118571;27;20109;-68
2023/04/11 07:07:04;;;;;;;15.50;3.03;;;10.60;99.90;;;;;;5117503;27;20082;-68
2023/04/11 07:09:30;;;;;;;15.82;3.22;;;10.50;99.90;;;;;;5114250;27;20053;-68
2023/04/11 07:11:56;;;;;;;21.83;3.25;;;10.60;99.90;;;;;;5115209;27;20380;-67
2023/04/11 07:14:22;;;;;;;15.52;3.38;;;10.60;99.90;;;;;;5116001;27;20470;-67
2023/04/11 07:16:47;;;;;;;17.80;3.55;;;10.70;99.90;;;;;;5114724;27;20103;-68
2023/04/11 07:19:13;;;;;;;18.20;3.47;;;10.80;99.90;;;;;;5122311;27;20072;-67
2023/04/11 07:21:39;;;;;;;12.65;3.20;;;10.90;99.90;;;;;;5118698;27;20058;-68
2023/04/11 07:24:09;;;;;;;15.52;6.35;;;10.90;99.90;;;;;;5115484;27;20031;-68
2023/04/11 07:26:37;;;;;;;13.73;3.00;;;10.90;99.90;;;;;;5118253;27;20447;-67
2023/04/11 07:29:03;;;;;;;13.55;2.55;;;10.90;99.90;;;;;;5114758;27;20495;-67
2023/04/11 07:31:28;;;;;;;14.85;3.28;;;11.00;99.90;;;;;;5115903;27;20035;-68
2023/04/11 07:33:54;;;;;;;23.08;3.72;;;11.10;99.90;;;;;;5116484;27;20516;-67
2023/04/11 07:36:20;;;;;;;20.23;3.40;;;11.20;99.90;;;;;;5118206;27;20066;-69
2023/04/11 07:38:45;;;;;;;18.92;3.00;;;11.30;99.90;;;;;;5118441;27;20476;-69
2023/04/11 07:41:11;;;;;;;13.13;2.70;;;11.30;99.90;;;;;;5112667;27;20027;-69
2023/04/11 07:43:37;;;;;;;11.18;2.80;;;11.50;99.90;;;;;;5116708;27;20031;-69
2023/04/11 07:46:03;;;;;;;15.13;3.33;;;11.70;99.90;;;;;;5118975;27;20030;-68
2023/04/11 07:48:29;;;;;;;15.95;3.50;;;11.70;99.90;;;;;;5115160;27;20386;-68
2023/04/11 07:50:55;;;;;;;20.02;4.53;;;11.70;99.90;;;;;;5119319;27;20032;-68
2023/04/11 07:53:21;;;;;;;14.25;4.32;;;11.50;99.90;;;;;;5116156;27;20031;-69
2023/04/11 07:55:47;;;;;;;18.73;4.25;;;11.40;99.90;;;;;;5115048;27;20471;-68
2023/04/11 07:58:13;;;;;;;14.90;3.60;;;11.50;99.90;;;;;;5112615;27;20030;-68
2023/04/11 08:00:38;;;;;;;15.93;4.38;;;11.70;99.90;;;;;;5116427;27;20093;-68
2023/04/11 08:03:05;;;;;;;12.95;4.20;;;11.60;99.90;;;;;;5117369;27;20072;-68
2023/04/11 08:05:32;;;;;;;19.77;4.97;;;11.70;99.90;;;;;;5120311;27;20015;-69
2023/04/11 08:07:58;;;;;;;10.38;4.32;;;12.00;99.90;;;;;;5116279;27;20046;-68
2023/04/11 08:10:24;;;;;;;18.80;4.97;;;12.10;99.90;;;;;;5116181;27;20031;-67
2023/04/11 08:12:50;;;;;;;12.57;4.68;;;12.00;99.90;;;;;;5116745;27;20023;-68
2023/04/11 08:15:17;;;;;;;18.80;5.05;;;12.10;99.90;;;;;;5113789;27;20059;-69
2023/04/11 08:17:44;;;;;;;15.32;4.30;;;12.20;99.90;;;;;;5115370;27;20024;-68
2023/04/11 08:20:11;;;;;;;17.55;4.97;;;12.50;99.90;;;;;;5116633;27;20052;-69
2023/04/11 08:22:43;;;;;;;16.42;4.80;;;12.60;99.90;;;;;;5116744;27;20032;-68
2023/04/11 08:25:10;;;;;;;16.70;4.80;;;12.80;99.90;;;;;;5112623;27;20403;-68
2023/04/11 08:27:36;;;;;;;13.35;4.60;;;12.80;99.90;;;;;;5117467;27;20032;-70
2023/04/11 08:30:03;;;;;;;17.75;5.30;;;12.90;99.90;;;;;;5116587;27;20475;-68
2023/04/11 08:32:29;;;;;;;13.93;4.80;;;13.20;99.90;;;;;;5116009;28;20026;-68
2023/04/11 08:34:55;;;;;;;17.33;4.72;;;13.20;99.90;;;;;;5117611;27;22494;-68
2023/04/11 08:37:20;;;;;;;14.20;4.57;;;13.10;99.90;;;;;;5116292;27;20043;-68
2023/04/11 08:39:46;;;;;;;16.50;5.30;;;13.20;99.90;;;;;;5116641;28;20029;-68
2023/04/11 08:42:26;;;;;;;17.08;5.03;;;13.10;99.90;;;;;;5118359;27;20027;-68
2023/04/11 08:44:53;;;;;;;15.50;5.15;;;13.20;99.90;;;;;;5116654;27;20030;-68
2023/04/11 08:47:20;;;;;;;14.60;4.53;;;13.30;99.90;;;;;;5118451;28;20027;-68
2023/04/11 08:49:45;;;;;;;13.57;4.53;;;13.50;99.90;;;;;;5115024;27;20027;-68
2023/04/11 08:52:12;;;;;;;18.08;4.85;;;13.50;99.90;;;;;;5119004;27;20492;-68
2023/04/11 08:54:38;;;;;;;12.77;5.32;;;13.60;99.90;;;;;;5115417;27;20479;-69
2023/04/11 08:57:03;;;;;;;12.98;4.45;;;13.70;99.90;;;;;;5118795;27;20030;-68
2023/04/11 08:59:29;;;;;;;10.10;4.70;;;13.90;99.90;;;;;;5118999;27;20028;-69
2023/04/11 09:02:10;;;;;;;10.27;4.47;;;14.10;99.90;;;;;;5125068;27;20164;-68
2023/04/11 09:04:40;;;;;;;13.85;4.45;;;14.00;99.90;;;;;;5117247;27;20475;-68
2023/04/11 09:07:06;;;;;;;12.68;4.78;;;13.80;99.90;;;;;;5120025;27;20020;-68
2023/04/11 09:09:31;;;;;;;8.73;4.47;;;13.70;99.90;;;;;;5116090;27;20142;-68
2023/04/11 09:11:58;;;;;;;11.63;4.70;;;13.60;99.90;;;;;;5117417;27;20027;-69
2023/04/11 09:14:25;;;;;;;16.23;4.45;;;13.70;99.90;;;;;;5118424;27;20059;-68
2023/04/11 09:16:58;;;;;;;11.80;4.00;;;13.70;99.90;;;;;;5121351;27;20031;-69
2023/04/11 09:19:25;;;;;;;14.55;5.05;;;13.70;99.90;;;;;;5118151;27;20023;-68
2023/04/11 09:21:53;;;;;;;16.38;6.95;;;13.80;99.90;;;;;;5118464;27;20030;-68
2023/04/11 09:24:19;;;;;;;15.50;5.43;;;13.90;99.90;;;;;;5119096;27;20024;-68
2023/04/11 09:26:44;;;;;;;11.23;4.75;;;14.00;99.90;;;;;;5118791;27;20028;-68
2023/04/11 09:29:10;;;;;;;12.73;5.00;;;14.10;99.90;;;;;;5118509;27;20028;-68
2023/04/11 09:31:41;;;;;;;9.60;4.63;;;14.20;99.90;;;;;;5115006;27;20495;-69
2023/04/11 09:34:07;;;;;;;13.95;4.82;;;14.30;99.90;;;;;;5115524;27;20179;-68
2023/04/11 09:36:33;;;;;;;10.50;4.93;;;14.50;99.90;;;;;;5117789;27;20057;-69
2023/04/11 09:39:00;;;;;;;15.93;4.68;;;14.70;99.90;;;;;;5116202;27;20407;-68
2023/04/11 09:41:34;;;;;;;9.73;4.63;;;14.70;99.90;;;;;;5120269;27;20024;-68
2023/04/11 09:44:01;;;;;;;13.18;4.43;;;14.80;99.90;;;;;;5114932;27;20031;-68
2023/04/11 09:46:27;;;;;;;14.38;5.15;;;14.90;99.90;;;;;;5121547;27;20015;-68
2023/04/11 09:48:53;;;;;;;14.82;4.28;;;14.80;99.90;;;;;;5120042;27;20038;-68
2023/04/11 09:51:20;;;;;;;14.05;4.93;;;15.10;99.90;;;;;;5121695;27;20023;-68
2023/04/11 09:53:46;;;;;;;9.50;5.28;;;15.20;99.90;;;;;;5118574;27;20019;-68
2023/04/11 09:56:12;;;;;;;16.40;5.00;;;15.30;99.90;;;;;;5117260;27;20023;-69
2023/04/11 09:58:39;;;;;;;10.10;4.07;;;15.60;99.90;;;;;;5121245;27;20111;-69
2023/04/11 10:01:06;;;;;;;11.32;3.65;;;15.60;99.90;;;;;;5115758;27;20095;-68
2023/04/11 10:03:37;;;;;;;10.48;3.00;;;15.70;99.90;;;;;;5116399;27;20031;-69
2023/04/11 10:06:19;;;;;;;11.60;3.15;;;15.80;99.90;;;;;;5119558;27;20107;-68
2023/04/11 10:08:46;;;;;;;10.65;2.55;;;15.60;99.90;;;;;;5120099;27;20051;-68
2023/04/11 10:11:13;;;;;;;8.60;2.60;;;15.70;99.90;;;;;;5119721;27;20084;-68
2023/04/11 10:13:42;;;;;;;6.82;2.80;;;15.60;99.90;;;;;;5114956;27;20023;-69
2023/04/11 10:16:16;;;;;;;6.80;2.75;;;15.70;99.90;;;;;;5117688;27;20475;-68
2023/04/11 10:18:53;;;;;;;7.10;2.95;;;15.80;99.90;;;;;;5115745;27;20098;-68
2023/04/11 10:21:29;;;;;;;7.60;3.20;;;15.80;99.90;;;;;;5119612;27;20027;-68
2023/04/11 10:24:14;;;;;;;7.40;2.85;;;16.00;99.90;;;;;;5115968;27;20543;-69
2023/04/11 10:26:59;;;;;;;7.88;2.92;;;16.00;99.90;;;;;;5118195;27;20027;-68
2023/04/11 10:29:27;;;;;;;10.65;3.05;;;15.70;99.90;;;;;;5118774;27;20168;-68
2023/04/11 10:32:12;;;;;;;11.80;2.72;;;15.70;99.90;;;;;;5119387;27;20028;-68
2023/04/11 10:34:40;;;;;;;7.53;2.30;;;16.00;99.90;;;;;;5117154;27;20103;-69
2023/04/11 10:37:08;;;;;;;12.02;2.65;;;16.30;99.90;;;;;;5116441;27;20084;-69
2023/04/11 10:39:49;;;;;;;8.57;2.78;;;16.50;99.90;;;;;;5117401;27;20398;-68
2023/04/11 10:42:52;;;;;;;14.52;2.70;;;16.20;99.90;;;;;;5117246;27;20032;-69
2023/04/11 10:45:28;;;;;;;8.38;1.88;;;15.70;99.90;;;;;;5114631;27;20130;-69
2023/04/11 10:48:02;;;;;;;9.60;1.70;;;15.80;99.90;;;;;;5117079;27;20090;-69
2023/04/11 10:50:30;;;;;;;5.68;1.73;;;15.40;99.90;;;;;;5115070;27;20085;-69
2023/04/11 10:53:02;;;;;;;10.75;2.45;;;15.10;99.90;;;;;;5114948;27;20023;-69
2023/04/11 10:55:31;;;;;;;6.75;1.75;;;14.90;99.90;;;;;;5115798;27;20505;-68
2023/04/11 10:58:08;;;;;;;8.13;1.80;;;15.20;99.90;;;;;;5113525;27;20079;-69
2023/04/11 11:00:56;;;;;;;7.25;1.58;;;15.70;99.90;;;;;;5117670;27;20076;-68
2023/04/11 11:03:30;;;;;;;8.00;2.08;;;16.10;99.90;;;;;;5115080;27;20031;-69
2023/04/11 11:06:04;;;;;;;5.35;1.52;;;16.30;99.90;;;;;;5114177;27;20291;-69
2023/04/11 11:08:36;;;;;;;9.07;1.90;;;16.50;99.90;;;;;;5116894;27;20016;-69
2023/04/11 11:11:07;;;;;;;9.48;1.52;;;16.70;99.90;;;;;;5118698;27;20111;-69
2023/04/11 11:13:42;;;;;;;8.27;1.75;;;16.70;99.90;;;;;;5116283;27;20042;-70
2023/04/11 11:16:12;;;;;;;7.72;1.95;;;16.80;99.90;;;;;;5116140;27;20416;-69
2023/04/11 11:18:38;;;;;;;7.20;1.90;;;16.80;99.90;;;;;;5116481;27;20027;-69
2023/04/11 11:21:04;;;;;;;6.97;1.70;;;17.10;99.90;;;;;;5115042;27;20027;-68
2023/04/11 11:23:30;;;;;;;8.15;1.95;;;16.80;99.90;;;;;;5114575;27;20093;-69
2023/04/11 11:25:57;;;;;;;7.55;1.50;;;16.80;99.90;;;;;;5115525;27;20027;-68
2023/04/11 11:28:24;;;;;;;7.60;1.90;;;17.00;99.90;;;;;;5113379;27;20068;-68
2023/04/11 11:30:54;;;;;;;5.28;1.63;;;17.10;99.90;;;;;;5116910;27;20775;-68
2023/04/11 11:33:22;;;;;;;6.30;1.50;;;17.40;99.90;;;;;;5115996;27;21792;-68
2023/04/11 11:35:52;;;;;;;10.68;2.08;;;17.60;99.90;;;;;;5113666;27;20364;-68
2023/04/11 11:38:25;;;;;;;7.82;2.08;;;17.60;99.90;;;;;;5115436;27;20023;-71
2023/04/11 11:40:52;;;;;;;5.50;1.70;;;17.60;99.90;;;;;;5118003;27;20479;-70
2023/04/11 11:43:18;;;;;;;10.27;2.20;;;17.30;99.90;;;;;;5115081;27;20039;-70
2023/04/11 11:45:44;;;;;;;6.53;2.40;;;17.50;99.90;;;;;;5119338;27;20030;-70
2023/04/11 11:48:23;;;;;;;9.52;2.47;;;17.70;99.90;;;;;;5115698;27;20042;-71
2023/04/11 11:50:56;;;;;;;6.47;2.28;;;17.90;99.90;;;;;;5118956;27;20526;-71
2023/04/11 11:53:23;;;;;;;9.98;2.40;;;17.80;99.90;;;;;;5114536;27;20083;-69
2023/04/11 11:55:49;;;;;;;8.25;2.13;;;17.90;99.90;;;;;;5117625;27;20066;-70
2023/04/11 11:58:17;;;;;;;4.57;1.80;;;17.80;99.90;;;;;;5112577;27;20437;-70
2023/04/11 12:00:47;;;;;;;5.13;1.95;;;17.50;99.90;;;;;;5121464;27;20018;-70
2023/04/11 12:03:17;;;;;;;8.10;1.92;;;17.30;99.90;;;;;;5117825;27;20459;-70
2023/04/11 12:05:43;;;;;;;5.57;1.75;;;17.50;99.90;;;;;;5118737;27;20046;-70
2023/04/11 12:08:09;;;;;;;6.50;2.30;;;17.70;99.90;;;;;;5115903;27;20084;-70
2023/04/11 12:10:39;;;;;;;5.95;2.75;;;17.90;99.90;;;;;;5116932;27;20016;-71
2023/04/11 12:13:22;;;;;;;5.63;2.10;;;18.00;99.90;;;;;;5115980;27;20031;-70
2023/04/11 12:15:50;;;;;;;5.72;1.42;;;17.80;99.90;;;;;;5117042;27;20011;-70
2023/04/11 12:18:18;;;;;;;6.22;2.25;;;17.70;99.90;;;;;;5116370;27;20235;-70
2023/04/11 12:20:44;;;;;;;4.68;2.03;;;17.90;99.90;;;;;;5116946;27;20016;-70
2023/04/11 12:23:09;;;;;;;4.50;1.85;;;17.90;99.90;;;;;;5116079;27;20035;-69
2023/04/11 12:25:35;;;;;;;8.93;2.92;;;17.70;99.90;;;;;;5114168;27;20022;-69
2023/04/11 12:28:01;;;;;;;6.78;2.08;;;17.40;99.90;;;;;;5119554;28;20023;-70
2023/04/11 12:30:26;;;;;;;8.75;2.58;;;17.60;99.90;;;;;;5113417;27;20096;-70
2023/04/11 12:32:52;;;;;;;5.65;2.30;;;17.40;99.90;;;;;;5121324;27;20089;-69
2023/04/11 12:35:18;;;;;;;6.40;1.90;;;17.50;99.90;;;;;;5118394;27;20031;-70
2023/04/11 12:37:44;;;;;;;5.75;2.03;;;17.30;99.50;;;;;;5121324;27;20026;-70
2023/04/11 12:40:11;;;;;;;6.22;2.05;;;17.30;99.90;;;;;;5118554;27;20027;-70